sensor_id;sensor_type;location;lat;lon;timestamp;temperature;humidity
21090;DHT22;10703;51.020;6.128;2022-10-31T00:01:01;14.70;99.90
21090;DHT22;10703;51.020;6.128;2022-10-31T00:03:28;14.70;99.90
21090;DHT22;10703;51.020;6.128;2022-10-31T00:05:54;14.70;99.90
21090;DHT22;10703;51.020;6.128;2022-10-31T00:08:21;14.70;99.90
21090;DHT22;10703;51.020;6.128;2022-10-31T00:10:47;14.60;99.90
21090;DHT22;10703;51.020;6.128;2022-10-31T00:13:14;14.60;99.90
21090;DHT22;10703;51.020;6.128;2022-10-31T00:15:41;14.50;99.90
21090;DHT22;10703;51.020;6.128;2022-10-31T00:18:09;14.50;99.90
21090;DHT22;10703;51.020;6.128;2022-10-31T00:20:36;14.50;99.90
21090;DHT22;10703;51.020;6.128;2022-10-31T00:23:04;14.50;99.90
21090;DHT22;10703;51.020;6.128;2022-10-31T00:25:34;14.50;99.90
21090;DHT22;10703;51.020;6.128;2022-10-31T00:28:03;14.40;99.90
21090;DHT22;10703;51.020;6.128;2022-10-31T00:30:30;14.40;99.90
21090;DHT22;10703;51.020;6.128;2022-10-31T00:32:56;14.40;99.90
21090;DHT22;10703;51.020;6.128;2022-10-31T00:35:24;14.30;99.90
21090;DHT22;10703;51.020;6.128;2022-10-31T00:37:51;14.40;99.90
21090;DHT22;10703;51.020;6.128;2022-10-31T00:40:18;14.30;99.90
21090;DHT22;10703;51.020;6.128;2022-10-31T00:42:45;14.30;99.90
21090;DHT22;10703;51.020;6.128;2022-10-31T00:45:11;14.20;99.90
21090;DHT22;10703;51.020;6.128;2022-10-31T00:47:38;14.20;99.90
21090;DHT22;10703;51.020;6.128;2022-10-31T00:50:06;14.10;99.90
21090;DHT22;10703;51.020;6.128;2022-10-31T00:52:33;14.10;99.90
21090;DHT22;10703;51.020;6.128;2022-10-31T00:54:59;14.00;99.90
21090;DHT22;10703;51.020;6.128;2022-10-31T00:57:26;13.90;99.90
21090;DHT22;10703;51.020;6.128;2022-10-31T00:59:53;14.00;99.90
21090;DHT22;10703;51.020;6.128;2022-10-31T01:02:19;14.00;99.90
21090;DHT22;10703;51.020;6.128;2022-10-31T01:04:46;14.00;99.90
21090;DHT22;10703;51.020;6.128;2022-10-31T01:07:13;13.90;99.90
21090;DHT22;10703;51.020;6.128;2022-10-31T01:09:40;13.80;99.90
21090;DHT22;10703;51.020;6.128;2022-10-31T01:12:08;13.70;99.90
21090;DHT22;10703;51.020;6.128;2022-10-31T01:14:34;13.60;99.90
21090;DHT22;10703;51.020;6.128;2022-10-31T01:17:01;13.60;99.90
21090;DHT22;10703;51.020;6.128;2022-10-31T01:19:28;13.50;99.90
21090;DHT22;10703;51.020;6.128;2022-10-31T01:21:55;13.40;99.90
21090;DHT22;10703;51.020;6.128;2022-10-31T01:24:22;13.30;99.90
21090;DHT22;10703;51.020;6.128;2022-10-31T01:26:48;13.20;99.90
21090;DHT22;10703;51.020;6.128;2022-10-31T01:29:15;13.30;99.90
21090;DHT22;10703;51.020;6.128;2022-10-31T01:31:42;13.30;99.90
21090;DHT22;10703;51.020;6.128;2022-10-31T01:34:13;13.30;99.90
21090;DHT22;10703;51.020;6.128;2022-10-31T01:36:41;13.20;99.90
21090;DHT22;10703;51.020;6.128;2022-10-31T01:39:14;13.20;99.90
21090;DHT22;10703;51.020;6.128;2022-10-31T01:41:47;13.10;99.90
21090;DHT22;10703;51.020;6.128;2022-10-31T01:46:50;13.00;99.90
21090;DHT22;10703;51.020;6.128;2022-10-31T01:52:03;12.90;99.90
21090;DHT22;10703;51.020;6.128;2022-10-31T01:54:34;12.80;99.90
21090;DHT22;10703;51.020;6.128;2022-10-31T01:57:05;12.80;99.90
21090;DHT22;10703;51.020;6.128;2022-10-31T01:59:36;12.80;99.90
21090;DHT22;10703;51.020;6.128;2022-10-31T02:02:06;12.90;99.90
21090;DHT22;10703;51.020;6.128;2022-10-31T02:04:34;12.90;99.90
21090;DHT22;10703;51.020;6.128;2022-10-31T02:07:06;13.00;99.90
21090;DHT22;10703;51.020;6.128;2022-10-31T02:09:35;13.20;99.90
21090;DHT22;10703;51.020;6.128;2022-10-31T02:12:03;13.10;99.90
21090;DHT22;10703;51.020;6.128;2022-10-31T02:14:31;13.10;99.90
21090;DHT22;10703;51.020;6.128;2022-10-31T02:16:58;13.00;99.90
21090;DHT22;10703;51.020;6.128;2022-10-31T02:27:37;13.10;99.90
21090;DHT22;10703;51.020;6.128;2022-10-31T02:30:17;13.20;99.90
21090;DHT22;10703;51.020;6.128;2022-10-31T02:38:38;13.20;99.90
21090;DHT22;10703;51.020;6.128;2022-10-31T02:44:30;13.30;99.90
21090;DHT22;10703;51.020;6.128;2022-10-31T02:47:14;13.30;99.90
21090;DHT22;10703;51.020;6.128;2022-10-31T02:52:50;13.20;99.90
21090;DHT22;10703;51.020;6.128;2022-10-31T02:58:06;13.20;99.90
21090;DHT22;10703;51.020;6.128;2022-10-31T03:06:27;13.20;99.90
21090;DHT22;10703;51.020;6.128;2022-10-31T03:09:09;13.20;99.90
21090;DHT22;10703;51.020;6.128;2022-10-31T03:14:51;13.10;99.90
21090;DHT22;10703;51.020;6.128;2022-10-31T03:17:33;13.20;99.90
21090;DHT22;10703;51.020;6.128;2022-10-31T03:20:04;13.10;99.90
21090;DHT22;10703;51.020;6.128;2022-10-31T03:22:33;13.10;99.90
21090;DHT22;10703;51.020;6.128;2022-10-31T03:25:03;13.10;99.90
21090;DHT22;10703;51.020;6.128;2022-10-31T03:27:33;13.10;99.90
21090;DHT22;10703;51.020;6.128;2022-10-31T03:30:04;13.00;99.90
21090;DHT22;10703;51.020;6.128;2022-10-31T03:32:38;12.90;99.90
21090;DHT22;10703;51.020;6.128;2022-10-31T03:35:07;12.80;99.90
21090;DHT22;10703;51.020;6.128;2022-10-31T03:37:35;12.70;99.90
21090;DHT22;10703;51.020;6.128;2022-10-31T03:40:05;12.60;99.90
21090;DHT22;10703;51.020;6.128;2022-10-31T03:42:36;12.40;99.90
21090;DHT22;10703;51.020;6.128;2022-10-31T03:47:37;12.20;99.90
21090;DHT22;10703;51.020;6.128;2022-10-31T03:50:06;12.20;99.90
21090;DHT22;10703;51.020;6.128;2022-10-31T03:52:41;12.20;99.90
21090;DHT22;10703;51.020;6.128;2022-10-31T03:55:15;12.20;99.90
21090;DHT22;10703;51.020;6.128;2022-10-31T03:58:00;12.30;99.90
21090;DHT22;10703;51.020;6.128;2022-10-31T04:00:31;12.40;99.90
21090;DHT22;10703;51.020;6.128;2022-10-31T04:03:05;12.50;99.90
21090;DHT22;10703;51.020;6.128;2022-10-31T04:05:33;12.50;99.90
21090;DHT22;10703;51.020;6.128;2022-10-31T04:08:02;12.50;99.90
21090;DHT22;10703;51.020;6.128;2022-10-31T04:10:31;12.50;99.90
21090;DHT22;10703;51.020;6.128;2022-10-31T04:13:10;12.60;99.90
21090;DHT22;10703;51.020;6.128;2022-10-31T04:15:38;12.60;99.90
21090;DHT22;10703;51.020;6.128;2022-10-31T04:18:05;12.60;99.90
21090;DHT22;10703;51.020;6.128;2022-10-31T04:20:40;12.60;99.90
21090;DHT22;10703;51.020;6.128;2022-10-31T04:23:20;12.60;99.90
21090;DHT22;10703;51.020;6.128;2022-10-31T04:25:46;12.70;99.90
21090;DHT22;10703;51.020;6.128;2022-10-31T04:28:13;12.70;99.90
21090;DHT22;10703;51.020;6.128;2022-10-31T04:30:40;12.70;99.90
21090;DHT22;10703;51.020;6.128;2022-10-31T04:33:06;12.70;99.90
21090;DHT22;10703;51.020;6.128;2022-10-31T04:35:33;12.80;99.90
21090;DHT22;10703;51.020;6.128;2022-10-31T04:37:59;12.70;99.90
21090;DHT22;10703;51.020;6.128;2022-10-31T04:40:26;12.60;99.90
21090;DHT22;10703;51.020;6.128;2022-10-31T04:42:53;12.60;99.90
21090;DHT22;10703;51.020;6.128;2022-10-31T04:45:19;12.60;99.90
21090;DHT22;10703;51.020;6.128;2022-10-31T04:47:47;12.60;99.90
21090;DHT22;10703;51.020;6.128;2022-10-31T04:50:13;12.60;99.90
21090;DHT22;10703;51.020;6.128;2022-10-31T04:52:41;12.60;99.90
21090;DHT22;10703;51.020;6.128;2022-10-31T04:55:09;12.50;99.90
21090;DHT22;10703;51.020;6.128;2022-10-31T04:57:44;12.40;99.90
21090;DHT22;10703;51.020;6.128;2022-10-31T05:00:12;12.40;99.90
21090;DHT22;10703;51.020;6.128;2022-10-31T05:03:08;12.30;99.90
21090;DHT22;10703;51.020;6.128;2022-10-31T05:05:35;12.20;99.90
21090;DHT22;10703;51.020;6.128;2022-10-31T05:08:01;12.20;99.90
21090;DHT22;10703;51.020;6.128;2022-10-31T05:10:29;12.20;99.90
21090;DHT22;10703;51.020;6.128;2022-10-31T05:13:01;12.20;99.90
21090;DHT22;10703;51.020;6.128;2022-10-31T05:15:29;12.20;99.90
21090;DHT22;10703;51.020;6.128;2022-10-31T05:17:56;12.30;99.90
21090;DHT22;10703;51.020;6.128;2022-10-31T05:20:26;12.30;99.90
21090;DHT22;10703;51.020;6.128;2022-10-31T05:22:54;12.30;99.90
21090;DHT22;10703;51.020;6.128;2022-10-31T05:25:23;12.20;99.90
21090;DHT22;10703;51.020;6.128;2022-10-31T05:27:51;12.20;99.90
21090;DHT22;10703;51.020;6.128;2022-10-31T05:30:20;12.20;99.90
21090;DHT22;10703;51.020;6.128;2022-10-31T05:32:49;12.20;99.90
21090;DHT22;10703;51.020;6.128;2022-10-31T05:35:22;12.20;99.90
21090;DHT22;10703;51.020;6.128;2022-10-31T05:37:49;12.10;99.90
21090;DHT22;10703;51.020;6.128;2022-10-31T05:40:17;12.00;99.90
21090;DHT22;10703;51.020;6.128;2022-10-31T05:42:44;12.10;99.90
21090;DHT22;10703;51.020;6.128;2022-10-31T05:45:14;12.00;99.90
21090;DHT22;10703;51.020;6.128;2022-10-31T05:47:41;12.00;99.90
21090;DHT22;10703;51.020;6.128;2022-10-31T05:50:09;12.00;99.90
21090;DHT22;10703;51.020;6.128;2022-10-31T05:52:36;12.00;99.90
21090;DHT22;10703;51.020;6.128;2022-10-31T05:55:03;11.90;99.90
21090;DHT22;10703;51.020;6.128;2022-10-31T05:57:32;11.90;99.90
21090;DHT22;10703;51.020;6.128;2022-10-31T05:59:59;11.80;99.90
21090;DHT22;10703;51.020;6.128;2022-10-31T06:02:25;11.70;99.90
21090;DHT22;10703;51.020;6.128;2022-10-31T06:04:53;11.60;99.90
21090;DHT22;10703;51.020;6.128;2022-10-31T06:07:20;11.50;99.90
21090;DHT22;10703;51.020;6.128;2022-10-31T06:09:46;11.40;99.90
21090;DHT22;10703;51.020;6.128;2022-10-31T06:12:13;11.60;99.90
21090;DHT22;10703;51.020;6.128;2022-10-31T06:14:39;11.50;99.90
21090;DHT22;10703;51.020;6.128;2022-10-31T06:17:06;11.50;99.90
21090;DHT22;10703;51.020;6.128;2022-10-31T06:19:33;11.50;99.90
21090;DHT22;10703;51.020;6.128;2022-10-31T06:21:59;11.50;99.90
21090;DHT22;10703;51.020;6.128;2022-10-31T06:24:26;11.50;99.90
21090;DHT22;10703;51.020;6.128;2022-10-31T06:26:52;11.50;99.90
21090;DHT22;10703;51.020;6.128;2022-10-31T06:29:19;11.40;99.90
21090;DHT22;10703;51.020;6.128;2022-10-31T06:31:45;11.40;99.90
21090;DHT22;10703;51.020;6.128;2022-10-31T06:34:12;11.30;99.90
21090;DHT22;10703;51.020;6.128;2022-10-31T06:36:38;11.30;99.90
21090;DHT22;10703;51.020;6.128;2022-10-31T06:39:05;11.20;99.90
21090;DHT22;10703;51.020;6.128;2022-10-31T06:41:32;11.20;99.90
21090;DHT22;10703;51.020;6.128;2022-10-31T06:43:58;11.10;99.90
21090;DHT22;10703;51.020;6.128;2022-10-31T06:46:31;11.00;99.90
21090;DHT22;10703;51.020;6.128;2022-10-31T06:48:58;11.00;99.90
21090;DHT22;10703;51.020;6.128;2022-10-31T06:51:25;10.90;99.90
21090;DHT22;10703;51.020;6.128;2022-10-31T06:53:51;10.90;99.90
21090;DHT22;10703;51.020;6.128;2022-10-31T06:56:18;11.00;99.90
21090;DHT22;10703;51.020;6.128;2022-10-31T06:58:44;11.00;99.90
21090;DHT22;10703;51.020;6.128;2022-10-31T07:01:11;11.10;99.90
21090;DHT22;10703;51.020;6.128;2022-10-31T07:03:38;11.20;99.90
21090;DHT22;10703;51.020;6.128;2022-10-31T07:06:05;11.20;99.90
21090;DHT22;10703;51.020;6.128;2022-10-31T07:08:31;11.20;99.90
21090;DHT22;10703;51.020;6.128;2022-10-31T07:10:58;11.20;99.90
21090;DHT22;10703;51.020;6.128;2022-10-31T07:13:24;11.30;99.90
21090;DHT22;10703;51.020;6.128;2022-10-31T07:15:53;11.30;99.90
21090;DHT22;10703;51.020;6.128;2022-10-31T07:18:21;11.40;99.90
21090;DHT22;10703;51.020;6.128;2022-10-31T07:20:48;11.50;99.90
21090;DHT22;10703;51.020;6.128;2022-10-31T07:23:14;11.60;99.90
21090;DHT22;10703;51.020;6.128;2022-10-31T07:25:41;11.60;99.90
21090;DHT22;10703;51.020;6.128;2022-10-31T07:28:08;11.70;99.90
21090;DHT22;10703;51.020;6.128;2022-10-31T07:30:36;11.70;99.90
21090;DHT22;10703;51.020;6.128;2022-10-31T07:33:04;11.90;99.90
21090;DHT22;10703;51.020;6.128;2022-10-31T07:35:31;12.00;99.90
21090;DHT22;10703;51.020;6.128;2022-10-31T07:38:06;12.00;99.90
21090;DHT22;10703;51.020;6.128;2022-10-31T07:40:33;12.10;99.90
21090;DHT22;10703;51.020;6.128;2022-10-31T07:43:00;12.10;99.90
21090;DHT22;10703;51.020;6.128;2022-10-31T07:45:26;12.20;99.90
21090;DHT22;10703;51.020;6.128;2022-10-31T07:47:53;12.10;99.90
21090;DHT22;10703;51.020;6.128;2022-10-31T07:50:25;12.20;99.90
21090;DHT22;10703;51.020;6.128;2022-10-31T07:53:20;12.40;99.90
21090;DHT22;10703;51.020;6.128;2022-10-31T07:55:46;12.60;99.90
21090;DHT22;10703;51.020;6.128;2022-10-31T07:58:15;12.90;99.90
21090;DHT22;10703;51.020;6.128;2022-10-31T08:00:43;13.20;99.90
21090;DHT22;10703;51.020;6.128;2022-10-31T08:03:14;13.50;99.90
21090;DHT22;10703;51.020;6.128;2022-10-31T08:05:41;13.80;99.90
21090;DHT22;10703;51.020;6.128;2022-10-31T08:08:08;14.00;99.90
21090;DHT22;10703;51.020;6.128;2022-10-31T08:10:35;14.10;99.90
21090;DHT22;10703;51.020;6.128;2022-10-31T08:13:10;14.20;99.90
21090;DHT22;10703;51.020;6.128;2022-10-31T08:15:38;14.30;99.90
21090;DHT22;10703;51.020;6.128;2022-10-31T08:18:12;14.00;99.90
21090;DHT22;10703;51.020;6.128;2022-10-31T08:20:40;14.20;99.90
21090;DHT22;10703;51.020;6.128;2022-10-31T08:23:07;14.10;99.90
21090;DHT22;10703;51.020;6.128;2022-10-31T08:25:35;14.00;99.90
21090;DHT22;10703;51.020;6.128;2022-10-31T08:28:05;14.00;99.90
21090;DHT22;10703;51.020;6.128;2022-10-31T08:30:34;14.10;99.90
21090;DHT22;10703;51.020;6.128;2022-10-31T08:35:35;14.20;99.90
21090;DHT22;10703;51.020;6.128;2022-10-31T08:38:02;14.20;99.90
21090;DHT22;10703;51.020;6.128;2022-10-31T08:40:31;14.10;99.90
21090;DHT22;10703;51.020;6.128;2022-10-31T08:45:33;14.10;99.90
21090;DHT22;10703;51.020;6.128;2022-10-31T08:48:01;14.10;99.90
21090;DHT22;10703;51.020;6.128;2022-10-31T08:50:30;14.10;99.90
21090;DHT22;10703;51.020;6.128;2022-10-31T08:53:09;14.10;99.90
21090;DHT22;10703;51.020;6.128;2022-10-31T08:55:37;14.20;99.90
21090;DHT22;10703;51.020;6.128;2022-10-31T08:58:06;14.40;99.90
21090;DHT22;10703;51.020;6.128;2022-10-31T09:00:34;14.60;99.90
21090;DHT22;10703;51.020;6.128;2022-10-31T09:03:03;14.80;99.90
21090;DHT22;10703;51.020;6.128;2022-10-31T09:05:31;15.30;99.90
21090;DHT22;10703;51.020;6.128;2022-10-31T09:07:58;15.70;99.90
21090;DHT22;10703;51.020;6.128;2022-10-31T09:10:27;15.90;99.90
21090;DHT22;10703;51.020;6.128;2022-10-31T09:12:58;16.00;99.90
21090;DHT22;10703;51.020;6.128;2022-10-31T09:15:26;16.30;99.90
21090;DHT22;10703;51.020;6.128;2022-10-31T09:17:54;16.40;99.90
21090;DHT22;10703;51.020;6.128;2022-10-31T09:20:20;16.50;99.90
21090;DHT22;10703;51.020;6.128;2022-10-31T09:22:47;16.60;99.90
21090;DHT22;10703;51.020;6.128;2022-10-31T09:25:14;16.70;99.90
21090;DHT22;10703;51.020;6.128;2022-10-31T09:27:40;16.80;99.90
21090;DHT22;10703;51.020;6.128;2022-10-31T09:30:07;17.20;99.90
21090;DHT22;10703;51.020;6.128;2022-10-31T09:32:34;17.40;99.90
21090;DHT22;10703;51.020;6.128;2022-10-31T09:35:01;17.70;99.90
21090;DHT22;10703;51.020;6.128;2022-10-31T09:37:27;17.60;99.90
21090;DHT22;10703;51.020;6.128;2022-10-31T09:39:54;17.80;99.90
21090;DHT22;10703;51.020;6.128;2022-10-31T09:42:27;18.20;99.90
21090;DHT22;10703;51.020;6.128;2022-10-31T09:45:09;18.30;99.90
21090;DHT22;10703;51.020;6.128;2022-10-31T09:47:55;18.40;99.90
21090;DHT22;10703;51.020;6.128;2022-10-31T09:50:29;18.60;99.90
21090;DHT22;10703;51.020;6.128;2022-10-31T09:53:03;18.70;99.90
21090;DHT22;10703;51.020;6.128;2022-10-31T09:55:36;18.90;99.90
21090;DHT22;10703;51.020;6.128;2022-10-31T09:58:03;18.90;99.90
21090;DHT22;10703;51.020;6.128;2022-10-31T10:00:31;18.90;99.90
21090;DHT22;10703;51.020;6.128;2022-10-31T10:03:13;18.70;99.90
21090;DHT22;10703;51.020;6.128;2022-10-31T10:06:09;18.50;99.90
21090;DHT22;10703;51.020;6.128;2022-10-31T10:08:38;18.20;99.90
21090;DHT22;10703;51.020;6.128;2022-10-31T10:14:19;18.10;99.90
21090;DHT22;10703;51.020;6.128;2022-10-31T10:19:48;18.50;99.90
21090;DHT22;10703;51.020;6.128;2022-10-31T10:22:26;18.60;99.90
21090;DHT22;10703;51.020;6.128;2022-10-31T10:25:10;18.30;99.90
21090;DHT22;10703;51.020;6.128;2022-10-31T10:32:53;18.30;99.90
21090;DHT22;10703;51.020;6.128;2022-10-31T10:38:23;18.40;99.90
21090;DHT22;10703;51.020;6.128;2022-10-31T10:40:53;18.80;99.90
21090;DHT22;10703;51.020;6.128;2022-10-31T10:43:30;19.20;99.90
21090;DHT22;10703;51.020;6.128;2022-10-31T10:46:16;19.20;99.90
21090;DHT22;10703;51.020;6.128;2022-10-31T10:57:58;19.40;99.90
21090;DHT22;10703;51.020;6.128;2022-10-31T11:00:43;19.40;99.90
21090;DHT22;10703;51.020;6.128;2022-10-31T11:03:14;19.40;99.90
21090;DHT22;10703;51.020;6.128;2022-10-31T11:05:53;19.50;99.90
21090;DHT22;10703;51.020;6.128;2022-10-31T11:11:23;19.50;99.90
21090;DHT22;10703;51.020;6.128;2022-10-31T11:14:03;19.20;99.90
21090;DHT22;10703;51.020;6.128;2022-10-31T11:16:36;18.90;99.90
21090;DHT22;10703;51.020;6.128;2022-10-31T11:21:38;18.90;99.90
21090;DHT22;10703;51.020;6.128;2022-10-31T11:26:34;19.10;99.90
21090;DHT22;10703;51.020;6.128;2022-10-31T11:29:01;19.30;99.90
21090;DHT22;10703;51.020;6.128;2022-10-31T11:31:32;19.20;99.90
21090;DHT22;10703;51.020;6.128;2022-10-31T11:34:03;19.10;99.90
21090;DHT22;10703;51.020;6.128;2022-10-31T11:36:32;19.30;99.90
21090;DHT22;10703;51.020;6.128;2022-10-31T11:39:02;19.50;99.90
21090;DHT22;10703;51.020;6.128;2022-10-31T11:41:34;19.80;99.90
21090;DHT22;10703;51.020;6.128;2022-10-31T11:52:40;20.50;99.90
21090;DHT22;10703;51.020;6.128;2022-10-31T11:55:13;20.30;99.90
21090;DHT22;10703;51.020;6.128;2022-10-31T11:57:48;20.40;99.90
21090;DHT22;10703;51.020;6.128;2022-10-31T12:00:29;20.60;99.90
21090;DHT22;10703;51.020;6.128;2022-10-31T12:03:24;21.00;99.90
21090;DHT22;10703;51.020;6.128;2022-10-31T12:06:00;20.80;99.90
21090;DHT22;10703;51.020;6.128;2022-10-31T12:08:32;21.20;99.90
21090;DHT22;10703;51.020;6.128;2022-10-31T12:16:59;21.90;99.90
21090;DHT22;10703;51.020;6.128;2022-10-31T12:19:51;21.90;99.90
21090;DHT22;10703;51.020;6.128;2022-10-31T12:25:12;23.00;99.90
21090;DHT22;10703;51.020;6.128;2022-10-31T12:28:10;22.70;99.90
21090;DHT22;10703;51.020;6.128;2022-10-31T12:36:49;22.70;99.90
21090;DHT22;10703;51.020;6.128;2022-10-31T12:45:56;21.00;99.90
21090;DHT22;10703;51.020;6.128;2022-10-31T12:48:46;20.90;99.90
21090;DHT22;10703;51.020;6.128;2022-10-31T12:51:44;20.80;99.90
21090;DHT22;10703;51.020;6.128;2022-10-31T12:54:48;20.90;99.90
21090;DHT22;10703;51.020;6.128;2022-10-31T12:57:28;21.10;99.90
21090;DHT22;10703;51.020;6.128;2022-10-31T13:02:38;22.00;99.90
21090;DHT22;10703;51.020;6.128;2022-10-31T13:05:17;22.60;99.90
21090;DHT22;10703;51.020;6.128;2022-10-31T13:07:55;23.40;99.90
21090;DHT22;10703;51.020;6.128;2022-10-31T13:10:45;23.20;99.90
21090;DHT22;10703;51.020;6.128;2022-10-31T13:13:39;22.80;99.90
21090;DHT22;10703;51.020;6.128;2022-10-31T13:16:30;22.50;99.90
21090;DHT22;10703;51.020;6.128;2022-10-31T13:19:12;22.10;99.90
21090;DHT22;10703;51.020;6.128;2022-10-31T13:24:23;22.90;99.90
21090;DHT22;10703;51.020;6.128;2022-10-31T13:26:57;22.60;99.90
21090;DHT22;10703;51.020;6.128;2022-10-31T13:29:32;21.80;99.90
21090;DHT22;10703;51.020;6.128;2022-10-31T13:32:03;21.00;99.90
21090;DHT22;10703;51.020;6.128;2022-10-31T13:34:37;20.30;99.90
21090;DHT22;10703;51.020;6.128;2022-10-31T13:37:12;20.40;99.90
21090;DHT22;10703;51.020;6.128;2022-10-31T13:40:18;19.90;99.90
21090;DHT22;10703;51.020;6.128;2022-10-31T13:45:54;19.60;99.90
21090;DHT22;10703;51.020;6.128;2022-10-31T13:48:38;19.40;99.90
21090;DHT22;10703;51.020;6.128;2022-10-31T13:51:08;19.30;99.90
21090;DHT22;10703;51.020;6.128;2022-10-31T13:53:44;19.50;99.90
21090;DHT22;10703;51.020;6.128;2022-10-31T13:56:32;19.80;99.90
21090;DHT22;10703;51.020;6.128;2022-10-31T14:01:36;20.00;99.90
21090;DHT22;10703;51.020;6.128;2022-10-31T14:04:21;20.00;99.90
21090;DHT22;10703;51.020;6.128;2022-10-31T14:07:12;19.70;99.90
21090;DHT22;10703;51.020;6.128;2022-10-31T14:15:13;20.00;99.90
21090;DHT22;10703;51.020;6.128;2022-10-31T14:17:50;20.60;99.90
21090;DHT22;10703;51.020;6.128;2022-10-31T14:22:44;22.20;99.90
21090;DHT22;10703;51.020;6.128;2022-10-31T14:25:35;23.30;99.90
21090;DHT22;10703;51.020;6.128;2022-10-31T14:28:18;23.90;99.90
21090;DHT22;10703;51.020;6.128;2022-10-31T14:30:57;23.50;99.90
21090;DHT22;10703;51.020;6.128;2022-10-31T14:33:26;23.50;99.90
21090;DHT22;10703;51.020;6.128;2022-10-31T14:36:04;23.80;99.90
21090;DHT22;10703;51.020;6.128;2022-10-31T14:38:58;23.40;99.90
21090;DHT22;10703;51.020;6.128;2022-10-31T14:41:58;23.20;99.90
21090;DHT22;10703;51.020;6.128;2022-10-31T14:48:08;22.60;99.90
21090;DHT22;10703;51.020;6.128;2022-10-31T14:50:50;22.80;99.90
21090;DHT22;10703;51.020;6.128;2022-10-31T14:53:35;22.20;99.90
21090;DHT22;10703;51.020;6.128;2022-10-31T14:56:03;21.70;99.90
21090;DHT22;10703;51.020;6.128;2022-10-31T14:58:38;21.40;99.90
21090;DHT22;10703;51.020;6.128;2022-10-31T15:01:06;21.50;99.90
21090;DHT22;10703;51.020;6.128;2022-10-31T15:03:36;21.90;99.90
21090;DHT22;10703;51.020;6.128;2022-10-31T15:06:20;21.50;99.90
21090;DHT22;10703;51.020;6.128;2022-10-31T15:08:50;21.50;99.90
21090;DHT22;10703;51.020;6.128;2022-10-31T15:11:23;21.50;99.90
21090;DHT22;10703;51.020;6.128;2022-10-31T15:13:58;21.40;99.90
21090;DHT22;10703;51.020;6.128;2022-10-31T15:16:34;21.10;99.90
21090;DHT22;10703;51.020;6.128;2022-10-31T15:19:07;20.80;99.90
21090;DHT22;10703;51.020;6.128;2022-10-31T15:21:36;20.70;99.90
21090;DHT22;10703;51.020;6.128;2022-10-31T15:24:10;20.80;99.90
21090;DHT22;10703;51.020;6.128;2022-10-31T15:26:39;20.40;99.90
21090;DHT22;10703;51.020;6.128;2022-10-31T15:29:17;20.30;99.90
21090;DHT22;10703;51.020;6.128;2022-10-31T15:32:09;19.70;99.90
21090;DHT22;10703;51.020;6.128;2022-10-31T15:34:41;19.30;99.90
21090;DHT22;10703;51.020;6.128;2022-10-31T15:37:12;19.10;99.90
21090;DHT22;10703;51.020;6.128;2022-10-31T15:39:43;18.80;99.90
21090;DHT22;10703;51.020;6.128;2022-10-31T15:42:32;18.40;99.90
21090;DHT22;10703;51.020;6.128;2022-10-31T15:45:02;18.30;99.90
21090;DHT22;10703;51.020;6.128;2022-10-31T15:47:31;18.30;99.90
21090;DHT22;10703;51.020;6.128;2022-10-31T15:50:00;18.10;99.90
21090;DHT22;10703;51.020;6.128;2022-10-31T15:52:38;17.90;99.90
21090;DHT22;10703;51.020;6.128;2022-10-31T15:55:20;17.50;99.90
21090;DHT22;10703;51.020;6.128;2022-10-31T15:57:52;17.30;99.90
21090;DHT22;10703;51.020;6.128;2022-10-31T16:00:24;17.10;99.90
21090;DHT22;10703;51.020;6.128;2022-10-31T16:03:03;17.00;99.90
21090;DHT22;10703;51.020;6.128;2022-10-31T16:13:40;16.50;99.90
21090;DHT22;10703;51.020;6.128;2022-10-31T16:16:16;16.40;99.90
21090;DHT22;10703;51.020;6.128;2022-10-31T16:19:04;16.30;99.90
21090;DHT22;10703;51.020;6.128;2022-10-31T16:21:34;16.20;99.90
21090;DHT22;10703;51.020;6.128;2022-10-31T16:24:13;16.10;99.90
21090;DHT22;10703;51.020;6.128;2022-10-31T16:26:41;16.10;99.90
21090;DHT22;10703;51.020;6.128;2022-10-31T16:29:25;16.10;99.90
21090;DHT22;10703;51.020;6.128;2022-10-31T16:31:52;16.00;99.90
21090;DHT22;10703;51.020;6.128;2022-10-31T16:34:23;15.90;99.90
21090;DHT22;10703;51.020;6.128;2022-10-31T16:36:52;15.90;99.90
21090;DHT22;10703;51.020;6.128;2022-10-31T16:39:19;15.90;99.90
21090;DHT22;10703;51.020;6.128;2022-10-31T16:41:48;15.80;99.90
21090;DHT22;10703;51.020;6.128;2022-10-31T16:44:26;15.70;99.90
21090;DHT22;10703;51.020;6.128;2022-10-31T16:47:13;15.70;99.90
21090;DHT22;10703;51.020;6.128;2022-10-31T16:49:41;15.70;99.90
21090;DHT22;10703;51.020;6.128;2022-10-31T16:52:08;15.60;99.90
21090;DHT22;10703;51.020;6.128;2022-10-31T16:54:34;15.50;99.90
21090;DHT22;10703;51.020;6.128;2022-10-31T16:57:02;15.50;99.90
21090;DHT22;10703;51.020;6.128;2022-10-31T16:59:31;15.50;99.90
21090;DHT22;10703;51.020;6.128;2022-10-31T17:02:00;15.50;99.90
21090;DHT22;10703;51.020;6.128;2022-10-31T17:04:28;15.40;99.90
21090;DHT22;10703;51.020;6.128;2022-10-31T17:06:55;15.40;99.90
21090;DHT22;10703;51.020;6.128;2022-10-31T17:09:21;15.30;99.90
21090;DHT22;10703;51.020;6.128;2022-10-31T17:11:49;15.30;99.90
21090;DHT22;10703;51.020;6.128;2022-10-31T17:14:18;15.40;99.90
21090;DHT22;10703;51.020;6.128;2022-10-31T17:16:44;15.40;99.90
21090;DHT22;10703;51.020;6.128;2022-10-31T17:19:11;15.50;99.90
21090;DHT22;10703;51.020;6.128;2022-10-31T17:21:38;15.50;99.90
21090;DHT22;10703;51.020;6.128;2022-10-31T17:24:05;15.60;99.90
21090;DHT22;10703;51.020;6.128;2022-10-31T17:26:32;15.60;99.90
21090;DHT22;10703;51.020;6.128;2022-10-31T17:28:59;15.50;99.90
21090;DHT22;10703;51.020;6.128;2022-10-31T17:31:29;15.50;99.90
21090;DHT22;10703;51.020;6.128;2022-10-31T17:33:58;15.50;99.90
21090;DHT22;10703;51.020;6.128;2022-10-31T17:36:29;15.40;99.90
21090;DHT22;10703;51.020;6.128;2022-10-31T17:38:55;15.30;99.90
21090;DHT22;10703;51.020;6.128;2022-10-31T17:41:22;15.20;99.90
21090;DHT22;10703;51.020;6.128;2022-10-31T17:43:53;15.10;99.90
21090;DHT22;10703;51.020;6.128;2022-10-31T17:46:19;15.00;99.90
21090;DHT22;10703;51.020;6.128;2022-10-31T17:48:46;14.90;99.90
21090;DHT22;10703;51.020;6.128;2022-10-31T17:51:13;14.80;99.90
21090;DHT22;10703;51.020;6.128;2022-10-31T17:53:39;14.70;99.90
21090;DHT22;10703;51.020;6.128;2022-10-31T17:56:07;14.50;99.90
21090;DHT22;10703;51.020;6.128;2022-10-31T17:58:35;14.50;99.90
21090;DHT22;10703;51.020;6.128;2022-10-31T18:01:08;14.60;99.90
21090;DHT22;10703;51.020;6.128;2022-10-31T18:03:36;14.50;99.90
21090;DHT22;10703;51.020;6.128;2022-10-31T18:06:03;14.50;99.90
21090;DHT22;10703;51.020;6.128;2022-10-31T18:08:32;14.40;99.90
21090;DHT22;10703;51.020;6.128;2022-10-31T18:11:04;14.50;99.90
21090;DHT22;10703;51.020;6.128;2022-10-31T18:13:31;14.40;99.90